createdAt,value
2018-07-26T02:58:22.968Z,0
2018-07-26T02:59:03.650Z,0
2018-07-26T03:52:46.575Z,68
2018-07-26T03:53:26.883Z,68
2018-07-26T03:54:07.195Z,72
2018-07-26T03:54:47.657Z,76
2018-07-26T03:55:28.372Z,84
2018-07-26T03:56:08.632Z,84
2018-07-26T03:56:49.038Z,88
2018-07-26T03:57:29.559Z,92
2018-07-26T03:58:09.843Z,100
2018-07-26T03:58:51.244Z,100
2018-07-26T03:59:31.665Z,108
2018-07-26T04:00:12.319Z,112
2018-07-26T04:00:52.723Z,116
2018-07-26T04:01:33.284Z,124
2018-07-26T04:02:13.657Z,132
2018-07-26T04:02:54.097Z,136
2018-07-26T04:42:56.803Z,1128
2018-07-26T04:43:58.864Z,1220
2018-07-26T04:45:01.754Z,1232
2018-07-26T04:46:04.956Z,1284
2018-07-26T04:47:10.433Z,1368
2018-07-26T04:48:09.194Z,1420
2018-07-26T04:49:09.153Z,1468
2018-07-26T04:50:14.599Z,1528
2018-07-26T04:51:15.251Z,1596
2018-07-26T04:52:24.984Z,1652
2018-07-26T04:56:07.599Z,1932
2018-07-26T04:59:16.644Z,1956
2018-07-26T05:01:45.478Z,2036
2018-07-26T05:06:30.092Z,2360
2018-07-26T05:07:38.892Z,2736
2018-07-26T05:08:31.655Z,2828
2018-07-26T05:09:12.062Z,2976
2018-07-26T05:11:54.289Z,4212
2018-07-26T05:14:24.076Z,4312
2018-07-26T05:15:27.128Z,4744
2018-07-26T05:16:30.308Z,6180
2018-07-26T05:19:11.057Z,7860
2018-07-26T05:20:09.047Z,8092
2018-07-26T05:24:51.765Z,9136
2018-07-26T05:25:37.281Z,9392
2018-07-26T05:26:17.729Z,9716
2018-07-26T05:26:58.097Z,10144
2018-07-26T05:27:38.622Z,10336
2018-07-26T05:33:27.859Z,11424
2018-07-26T05:34:08.259Z,11520
2018-07-26T05:34:48.658Z,11104
2018-07-26T05:35:29.153Z,8900
2018-07-26T05:36:09.483Z,8620
2018-07-26T05:39:46.254Z,13344
2018-07-26T05:40:26.645Z,13760
2018-07-26T05:44:23.187Z,15648
2018-07-26T05:45:02.788Z,15744
2018-07-26T05:45:43.361Z,15904
2018-07-26T05:46:24.137Z,16096
2018-07-26T05:47:04.627Z,16448
2018-07-26T05:47:46.665Z,16512
2018-07-26T05:48:29.874Z,16704
2018-07-26T05:49:10.283Z,16960
2018-07-26T05:49:50.755Z,17632
2018-07-26T05:50:31.133Z,17824
2018-07-26T05:51:11.694Z,18272
2018-07-26T05:51:52.579Z,18176
2018-07-26T05:52:34.599Z,18080
2018-07-26T05:53:16.782Z,18336
2018-07-26T05:53:56.693Z,18944
2018-07-26T05:54:37.211Z,19648
2018-07-26T05:55:18.141Z,20000
2018-07-26T05:55:58.271Z,19968
2018-07-26T05:56:41.899Z,18688
2018-07-26T05:57:35.994Z,18336
2018-07-26T05:58:18.591Z,18688
2018-07-26T05:58:59.134Z,17792
2018-07-26T05:59:42.302Z,19968
2018-07-26T06:00:23.081Z,20096
2018-07-26T06:01:04.212Z,20416
2018-07-26T06:01:44.654Z,20800
2018-07-26T06:02:26.054Z,20896
2018-07-26T06:03:08.534Z,21312
2018-07-26T06:03:49.627Z,21728
2018-07-26T06:09:22.252Z,20096
2018-07-26T06:10:02.686Z,17920
2018-07-26T06:10:43.096Z,14400
2018-07-26T06:11:23.700Z,15488
2018-07-26T06:12:04.380Z,22016
2018-07-26T06:12:47.785Z,22784
2018-07-26T06:13:34.209Z,24416
2018-07-26T06:14:15.203Z,24736
2018-07-26T06:14:55.698Z,25440
2018-07-26T06:15:35.946Z,24672
2018-07-26T06:16:18.603Z,24096
2018-07-26T06:16:59.178Z,23776
2018-07-26T06:17:39.621Z,23360
2018-07-26T06:18:20.947Z,23488
2018-07-26T06:19:01.310Z,24960
2018-07-26T06:19:41.820Z,25824
2018-07-26T06:20:22.297Z,25920
2018-07-26T06:21:02.763Z,25536
2018-07-26T06:21:43.401Z,26144
2018-07-26T06:37:30.274Z,25248
2018-07-26T06:38:11.854Z,25632
2018-07-26T06:38:51.573Z,26016
2018-07-26T06:39:32.077Z,24128
2018-07-26T06:40:12.656Z,21728
2018-07-26T06:40:53.940Z,19808
2018-07-26T06:41:33.980Z,19296
2018-07-26T06:42:14.537Z,19232
2018-07-26T06:42:55.076Z,19776
2018-07-26T06:45:27.925Z,20096
2018-07-26T06:46:09.864Z,20800
2018-07-26T06:46:50.631Z,21536
2018-07-26T06:47:31.360Z,21984
2018-07-26T06:48:12.150Z,21536
2018-07-26T06:48:56.207Z,20768
2018-07-26T06:49:41.753Z,20480
2018-07-26T06:50:22.291Z,20448
2018-07-26T06:51:02.739Z,20512
2018-07-26T06:51:43.823Z,20512
2018-07-26T06:52:25.515Z,20160
2018-07-26T06:53:06.236Z,19200
2018-07-26T06:53:47.039Z,18432
2018-07-26T06:54:27.521Z,18336
2018-07-26T06:55:08.196Z,18720
2018-07-26T06:55:49.591Z,18240
2018-07-26T06:56:30.010Z,17600
2018-07-26T06:57:18.357Z,17248
2018-07-26T06:58:00.681Z,17408
2018-07-26T06:58:41.226Z,17536
2018-07-26T06:59:22.423Z,17920
2018-07-26T07:00:03.876Z,18112
2018-07-26T07:00:45.423Z,18592
2018-07-26T07:01:25.787Z,19072
2018-07-26T07:02:08.472Z,19936
2018-07-26T07:02:50.479Z,20736
2018-07-26T07:03:31.506Z,21248
2018-07-26T07:04:14.710Z,21856
2018-07-26T07:05:10.972Z,22976
2018-07-26T07:06:00.008Z,23776
2018-07-26T07:06:43.477Z,25056
2018-07-26T07:09:20.607Z,32736
2018-07-26T07:10:01.126Z,34432
2018-07-26T07:10:41.684Z,35264
2018-07-26T07:11:22.007Z,36160
2018-07-26T07:12:02.551Z,37472
2018-07-26T07:12:42.934Z,38688
2018-07-26T07:13:23.384Z,39264
2018-07-26T07:14:04.890Z,38304
2018-07-26T07:14:45.974Z,37344
2018-07-26T07:15:25.805Z,36832
2018-07-26T07:16:06.213Z,37056
2018-07-26T07:16:46.755Z,37120
2018-07-26T07:17:27.311Z,36960
2018-07-26T07:18:09.551Z,34656
2018-07-26T07:18:50.041Z,29376
2018-07-26T07:19:30.652Z,22816
2018-07-26T07:20:11.059Z,20864
2018-07-26T07:20:51.550Z,19712
2018-07-26T07:21:31.931Z,19072
2018-07-26T07:22:14.385Z,18784
2018-07-26T07:22:54.387Z,18592
2018-07-26T07:23:34.823Z,18688
2018-07-26T07:24:15.296Z,19008
2018-07-26T07:24:55.930Z,19232
2018-07-26T07:25:36.491Z,19456
2018-07-26T07:26:16.894Z,19200
2018-07-26T07:26:57.512Z,18080
2018-07-26T07:27:37.891Z,17408
2018-07-26T07:28:18.619Z,17600
2018-07-26T07:28:59.078Z,17600
2018-07-26T07:29:39.491Z,17024
2018-07-26T07:30:20.877Z,16672
2018-07-26T07:31:01.273Z,16524
2018-07-26T07:31:41.743Z,16356
2018-07-26T07:32:22.156Z,15912
2018-07-26T07:33:03.527Z,14316
2018-07-26T07:33:44.329Z,11192
2018-07-26T07:34:24.820Z,8584
2018-07-26T07:35:05.480Z,7328
2018-07-26T07:35:47.362Z,6988
2018-07-26T07:36:29.488Z,6804
2018-07-26T07:37:10.209Z,6668
2018-07-26T07:37:51.845Z,6512
2018-07-26T07:38:32.176Z,6360
2018-07-26T07:39:13.189Z,6256
2018-07-26T07:39:54.187Z,6184
2018-07-26T07:40:34.124Z,6124
2018-07-26T07:41:14.823Z,6076
2018-07-26T07:41:55.633Z,6000
2018-07-26T07:42:36.381Z,5940
2018-07-26T07:43:16.853Z,5872
2018-07-26T07:43:57.382Z,5808
2018-07-26T07:44:37.949Z,5768
2018-07-26T07:45:18.514Z,5764
2018-07-26T07:45:59.635Z,5740
2018-07-26T07:46:41.170Z,5684
2018-07-26T07:47:22.625Z,5608
2018-07-26T07:48:03.136Z,5552
2018-07-26T07:48:43.939Z,5496
2018-07-26T07:49:24.662Z,5432
2018-07-26T07:50:06.551Z,5388
2018-07-26T07:50:48.427Z,5344
2018-07-26T07:55:58.042Z,5020
2018-07-26T07:56:38.354Z,4992
2018-07-26T07:57:18.978Z,4972
2018-07-26T07:58:01.364Z,4948
2018-07-26T07:58:41.720Z,4908
2018-07-26T07:59:22.300Z,4888
2018-07-26T08:00:02.588Z,4868
2018-07-26T08:00:43.045Z,4848
2018-07-26T08:01:23.673Z,4832
2018-07-26T08:02:05.616Z,4804
2018-07-26T08:02:45.639Z,4776
2018-07-26T08:03:26.109Z,4748
2018-07-26T08:04:07.269Z,4712
2018-07-26T08:04:48.118Z,4672
2018-07-26T08:05:29.102Z,4632
2018-07-26T08:06:09.909Z,4596
2018-07-26T08:06:51.157Z,4560
2018-07-26T08:07:32.548Z,4520
2018-07-26T08:08:13.202Z,4484
2018-07-26T08:08:54.579Z,4452
2018-07-26T08:09:34.553Z,4416
2018-07-26T08:10:15.408Z,4388
2018-07-26T08:10:56.118Z,4352
2018-07-26T08:11:37.157Z,4316
2018-07-26T08:12:17.660Z,4284
2018-07-26T08:12:59.015Z,4256
2018-07-26T08:13:39.136Z,4228
2018-07-26T08:14:19.623Z,4200
2018-07-26T08:15:00.576Z,4180
2018-07-26T08:15:41.067Z,4144
2018-07-26T08:16:21.617Z,4124
2018-07-26T08:17:03.162Z,4088
2018-07-26T08:17:44.818Z,4064
2018-07-26T08:18:25.336Z,4036
2018-07-26T08:19:06.112Z,4016
2018-07-26T08:19:47.099Z,4000
2018-07-26T08:20:28.644Z,3976
2018-07-26T08:21:09.947Z,3956
2018-07-26T08:21:50.608Z,3936
2018-07-26T08:22:31.129Z,3912
2018-07-26T08:23:12.585Z,3884
2018-07-26T08:23:53.221Z,3860
2018-07-26T08:24:34.194Z,3840
2018-07-26T08:25:15.520Z,3820
2018-07-26T08:25:58.935Z,3804
2018-07-26T08:26:38.622Z,3784
2018-07-26T08:27:20.082Z,3764
2018-07-26T08:28:02.143Z,3744
2018-07-26T08:28:42.019Z,3716
2018-07-26T08:29:22.573Z,3696
2018-07-26T08:30:04.277Z,3676
2018-07-26T08:30:44.979Z,3656
2018-07-26T08:31:25.648Z,3644
2018-07-26T08:32:06.738Z,3628
2018-07-26T08:32:47.875Z,3608
2018-07-26T08:33:28.565Z,3592
2018-07-26T08:34:09.485Z,3572
2018-07-26T08:34:50.096Z,3556
2018-07-26T08:35:31.883Z,3540
2018-07-26T08:36:12.169Z,3528
2018-07-26T08:36:53.399Z,3508
2018-07-26T08:37:33.671Z,3496
2018-07-26T08:38:14.428Z,3484
2018-07-26T08:38:55.341Z,3468
2018-07-26T08:39:35.663Z,3456
2018-07-26T08:40:16.329Z,3444
2018-07-26T08:40:57.015Z,3432
2018-07-26T08:41:38.609Z,3424
2018-07-26T08:42:19.469Z,3412
2018-07-26T08:43:01.011Z,3396
2018-07-26T08:43:41.938Z,3388
2018-07-26T08:44:23.631Z,3368
2018-07-26T08:45:04.404Z,3352
2018-07-26T08:45:44.474Z,3344
2018-07-26T08:46:25.703Z,3332
2018-07-26T08:47:06.866Z,3320
2018-07-26T08:47:47.452Z,3308
2018-07-26T08:48:28.061Z,3304
2018-07-26T08:49:09.271Z,3296
2018-07-26T08:49:50.213Z,3284
2018-07-26T08:50:30.692Z,3280
2018-07-26T08:51:12.904Z,3268
2018-07-26T08:51:53.547Z,3260
2018-07-26T08:52:36.587Z,3248
2018-07-26T08:53:16.334Z,3240
2018-07-26T08:54:15.357Z,3224
2018-07-26T08:54:55.687Z,3200
2018-07-26T08:55:38.731Z,3164
2018-07-26T08:56:20.163Z,3204
2018-07-26T08:57:00.830Z,3192
2018-07-26T08:57:42.269Z,3180
2018-07-26T08:58:23.946Z,3168
2018-07-26T08:59:05.924Z,3164
2018-07-26T08:59:45.588Z,3152
2018-07-26T09:00:27.470Z,3144
2018-07-26T09:01:08.137Z,3136
2018-07-26T09:01:49.980Z,3124
2018-07-26T09:02:32.070Z,3116
2018-07-26T09:03:13.418Z,3108
2018-07-26T09:03:53.243Z,3096
2018-07-26T09:04:34.555Z,3084
2018-07-26T09:05:15.883Z,3084
2018-07-26T09:05:56.633Z,3072
2018-07-26T09:06:37.926Z,3060
2018-07-26T09:07:18.704Z,3044
2018-07-26T09:07:59.672Z,3036
2018-07-26T09:08:40.365Z,3024
2018-07-26T09:09:20.585Z,3020
2018-07-26T09:10:01.293Z,3008
2018-07-26T09:10:41.932Z,2992
2018-07-26T09:11:22.716Z,2984
2018-07-26T09:12:04.427Z,2972
2018-07-26T09:12:44.858Z,2968
2018-07-26T09:13:25.328Z,2960
2018-07-26T09:14:06.213Z,2952
2018-07-26T09:14:47.116Z,2940
2018-07-26T09:15:28.466Z,2932
2018-07-26T09:16:09.085Z,2916
2018-07-26T09:16:49.859Z,2912
2018-07-26T09:17:30.998Z,2904
2018-07-26T09:18:13.405Z,2896
2018-07-26T09:18:53.891Z,2884
2018-07-26T09:19:35.023Z,2872
2018-07-26T09:20:15.915Z,2856
2018-07-26T09:20:56.483Z,2848
2018-07-26T09:21:37.173Z,2840
2018-07-26T09:22:18.517Z,2828
2018-07-26T09:22:59.089Z,2820
2018-07-26T09:23:40.367Z,2808
2018-07-26T09:24:21.379Z,2792
2018-07-26T09:25:06.211Z,2784
2018-07-26T09:25:47.437Z,2776
2018-07-26T09:26:28.263Z,2772
2018-07-26T09:32:09.472Z,2676
2018-07-26T09:32:50.103Z,2668
2018-07-26T09:33:31.480Z,2656
2018-07-26T09:34:12.192Z,2644
2018-07-26T09:34:54.629Z,2636
2018-07-26T09:35:35.514Z,2624
2018-07-26T09:36:16.731Z,2608
2018-07-26T09:36:57.765Z,2600
2018-07-26T09:38:32.597Z,2576
2018-07-26T09:39:13.098Z,2560
2018-07-26T09:39:53.910Z,2548
2018-07-26T09:40:34.545Z,2544
2018-07-26T09:41:15.398Z,2532
2018-07-26T09:41:55.976Z,2524
2018-07-26T09:42:36.702Z,2512
2018-07-26T09:43:19.119Z,2504
2018-07-26T09:44:00.100Z,2500
2018-07-26T09:44:41.559Z,2492
2018-07-26T09:45:22.620Z,2484
2018-07-26T09:46:04.282Z,2480
2018-07-26T09:46:46.628Z,2468
2018-07-26T09:47:27.902Z,2464
2018-07-26T09:55:33.989Z,2384
2018-07-26T09:56:15.185Z,2372
2018-07-26T09:56:56.130Z,2368
2018-07-26T09:57:36.856Z,2468
2018-07-26T09:58:17.372Z,2468
2018-07-26T09:58:57.832Z,2460
2018-07-26T09:59:40.129Z,2460
2018-07-26T10:00:20.503Z,2456
2018-07-26T10:01:01.828Z,2336
2018-07-26T10:01:42.552Z,2328
2018-07-26T10:02:23.654Z,2320
2018-07-26T10:03:05.225Z,2316
2018-07-26T10:03:45.975Z,2312
2018-07-26T10:04:26.868Z,2300
2018-07-26T10:43:06.443Z,2000
2018-07-26T10:43:46.988Z,2000
2018-07-26T10:44:27.638Z,1996
2018-07-26T10:45:08.041Z,1988
2018-07-26T10:45:48.717Z,1996
2018-07-26T10:46:29.616Z,1996
2018-07-26T10:47:10.011Z,1988
2018-07-26T10:47:50.858Z,1984
2018-07-26T10:48:33.354Z,1984
2018-07-26T10:49:13.887Z,1976
2018-07-26T10:49:54.535Z,1976
2018-07-26T10:50:35.603Z,1972
2018-07-26T10:51:16.653Z,1968
2018-07-26T10:51:57.242Z,1968
2018-07-26T10:54:00.407Z,1960
2018-07-26T10:56:14.934Z,1948
2018-07-26T10:56:56.230Z,1932
2018-07-26T10:57:44.755Z,1932
2018-07-26T10:58:25.363Z,1928
2018-07-26T10:59:06.999Z,1928
2018-07-26T10:59:47.112Z,1928
2018-07-26T11:00:29.279Z,1932
2018-07-26T11:01:09.706Z,1932
2018-07-26T11:01:51.291Z,1936
2018-07-26T11:02:31.059Z,1928
2018-07-26T11:03:12.809Z,1920
2018-07-26T11:03:53.044Z,1908
2018-07-26T11:04:34.610Z,1892
2018-07-26T11:05:15.001Z,1892
2018-07-26T11:05:56.305Z,1900
2018-07-26T11:06:37.618Z,1888
2018-07-26T11:07:19.207Z,1880
2018-07-26T11:07:59.657Z,1872
2018-07-26T11:08:40.051Z,1868
2018-07-26T11:09:20.836Z,1872
2018-07-26T11:11:55.638Z,1876
2018-07-26T11:12:35.912Z,1880
2018-07-26T11:13:16.392Z,1872
2018-07-26T11:13:56.904Z,1876
2018-07-26T11:14:37.726Z,1872
2018-07-26T11:15:18.983Z,1884
2018-07-26T11:15:58.806Z,1880
2018-07-26T11:18:01.528Z,1868
2018-07-26T11:18:42.266Z,1860
2018-07-26T11:19:23.095Z,1868
2018-07-26T11:20:03.760Z,1868
2018-07-26T11:22:11.164Z,1860
2018-07-26T11:32:51.701Z,1376
2018-07-26T11:33:32.186Z,1844
2018-07-26T11:37:41.270Z,1980
2018-07-26T11:38:21.631Z,1960
2018-07-26T11:39:05.125Z,1952
2018-07-26T11:39:45.864Z,1944
2018-07-26T11:40:26.660Z,1884
2018-07-26T11:41:07.069Z,1908
2018-07-26T11:41:48.515Z,1932
2018-07-26T11:42:28.955Z,1940
2018-07-26T11:43:57.770Z,1960
2018-07-26T11:44:39.202Z,1956
2018-07-26T11:45:19.673Z,1940
2018-07-26T11:46:00.225Z,1924
2018-07-26T11:46:40.719Z,1912
2018-07-26T11:48:57.438Z,1800
2018-07-26T11:49:38.006Z,1264
2018-07-26T11:50:18.348Z,1340
2018-07-26T11:50:59.068Z,1340
2018-07-26T11:51:39.447Z,1892
2018-07-26T11:52:20.185Z,1936
2018-07-26T11:53:00.922Z,1948
2018-07-26T11:53:41.682Z,1952
2018-07-26T11:54:22.900Z,1968
2018-07-26T11:55:05.286Z,1968
2018-07-26T11:55:46.449Z,1964
2018-07-26T11:56:27.616Z,1964
2018-07-26T11:57:10.837Z,1944
2018-07-26T11:59:16.998Z,1892
2018-07-26T12:06:06.238Z,1884
2018-07-26T12:06:46.635Z,1836
2018-07-26T12:07:27.574Z,1840
2018-07-26T12:11:53.463Z,1848
2018-07-26T12:12:34.607Z,1856
2018-07-26T12:13:15.076Z,1848
2018-07-26T12:13:55.506Z,1844
2018-07-26T12:14:37.535Z,1840
2018-07-26T12:15:17.534Z,1836
2018-07-26T12:15:58.025Z,1824
2018-07-26T12:16:38.701Z,1808
2018-07-26T12:17:20.068Z,1800
2018-07-26T12:18:00.747Z,1796
2018-07-26T12:18:41.509Z,1800
2018-07-26T12:19:22.083Z,1796
2018-07-26T12:20:02.492Z,1796
2018-07-26T12:20:43.538Z,1796
2018-07-26T12:21:24.036Z,1796
2018-07-26T12:22:04.623Z,1800
2018-07-26T12:22:45.232Z,1796
2018-07-26T12:23:25.540Z,1792
2018-07-26T12:24:06.030Z,1788
2018-07-26T12:24:46.668Z,1796
2018-07-26T12:25:27.654Z,1864
2018-07-26T12:26:08.062Z,1892
2018-07-26T12:26:49.303Z,1880
2018-07-26T12:27:31.943Z,1924
2018-07-26T12:28:12.642Z,1928
2018-07-26T12:28:53.465Z,1940
2018-07-26T12:29:34.106Z,1956
2018-07-26T12:30:14.553Z,1960
2018-07-26T12:30:55.658Z,1960
2018-07-26T12:31:36.902Z,1972
2018-07-26T12:32:17.445Z,1964
2018-07-26T12:32:58.890Z,1940
2018-07-26T12:36:50.372Z,1916
2018-07-26T12:37:31.074Z,1908
2018-07-26T12:38:12.608Z,1900
2018-07-26T12:38:53.211Z,1896
2018-07-26T12:39:33.672Z,1884
2018-07-26T12:40:14.197Z,1888
2018-07-26T12:40:54.766Z,1884
2018-07-26T12:41:35.085Z,1888
2018-07-26T12:42:15.584Z,1888
2018-07-26T12:42:56.119Z,1884
2018-07-26T12:43:37.167Z,1888
2018-07-26T12:44:18.116Z,1888
2018-07-26T12:45:01.165Z,1888
2018-07-26T12:45:41.925Z,1892
2018-07-26T12:46:22.561Z,1900
2018-07-26T12:47:03.833Z,1912
2018-07-26T12:47:44.289Z,1912
2018-07-26T12:48:25.967Z,1932
2018-07-26T12:49:06.010Z,1936
2018-07-26T12:49:47.504Z,1928
2018-07-26T12:50:28.593Z,1944
2018-07-26T12:51:09.144Z,1964
2018-07-26T12:51:50.452Z,2000
2018-07-26T12:52:31.793Z,2028
2018-07-26T12:53:12.280Z,2060
2018-07-26T12:53:54.320Z,2092
2018-07-26T12:54:35.209Z,2116
2018-07-26T12:55:16.220Z,2140
2018-07-26T12:55:57.449Z,2176
2018-07-26T12:56:39.256Z,2192
2018-07-26T12:57:24.813Z,2192
2018-07-26T12:58:05.345Z,2184
2018-07-26T12:58:46.197Z,2196
2018-07-26T12:59:30.696Z,2204
2018-07-26T13:00:11.937Z,2188
2018-07-26T13:00:53.075Z,2136
2018-07-26T13:01:34.896Z,2088
2018-07-26T13:02:15.789Z,2056
2018-07-26T13:02:56.259Z,2052
2018-07-26T13:03:38.444Z,2036
2018-07-26T13:04:19.214Z,2012
2018-07-26T13:04:59.719Z,2000
2018-07-26T13:05:41.537Z,1996
2018-07-26T13:06:22.192Z,2036
2018-07-26T13:07:03.040Z,2064
2018-07-26T13:07:43.851Z,2056
2018-07-26T13:08:27.209Z,2052
2018-07-26T13:09:09.095Z,2044
2018-07-26T13:09:50.228Z,2024
2018-07-26T13:10:32.092Z,1988
2018-07-26T13:11:12.615Z,1944
2018-07-26T13:11:53.278Z,1904
2018-07-26T13:12:33.833Z,1868
2018-07-26T13:13:14.395Z,1844
2018-07-26T13:13:55.092Z,1836
2018-07-26T13:14:35.754Z,1832
2018-07-26T13:15:18.234Z,1836
2018-07-26T13:15:59.161Z,1832
2018-07-26T13:17:52.854Z,1848
2018-07-26T13:18:34.675Z,1848
2018-07-26T13:19:15.452Z,1852
2018-07-26T13:19:56.573Z,1848
2018-07-26T13:20:40.013Z,1844
2018-07-26T13:21:20.719Z,1832
2018-07-26T13:38:45.667Z,1516
2018-07-26T13:39:28.619Z,1460
2018-07-26T13:40:17.082Z,1444
2018-07-26T13:40:58.690Z,1420
2018-07-26T13:41:39.709Z,1436
2018-07-26T13:42:21.502Z,1456
2018-07-26T13:43:02.369Z,1472
2018-07-26T13:43:43.035Z,1616
2018-07-26T13:44:23.944Z,1624
2018-07-26T13:45:04.641Z,1392
2018-07-26T13:45:45.454Z,1764
2018-07-26T13:46:25.996Z,1616
2018-07-26T13:47:07.514Z,1812
2018-07-26T13:47:48.533Z,1828
2018-07-26T13:48:29.380Z,1764
2018-07-26T13:49:13.056Z,1544
2018-07-26T13:49:54.713Z,1536
2018-07-26T13:50:35.576Z,1496
2018-07-26T13:51:17.057Z,1512
2018-07-26T13:51:58.797Z,1732
2018-07-26T13:52:38.681Z,1664
2018-07-26T13:53:19.719Z,1620
2018-07-26T13:54:17.601Z,1684
2018-07-26T13:54:59.111Z,1640
2018-07-26T13:55:39.616Z,1556
2018-07-26T13:56:20.942Z,1560
2018-07-26T14:00:31.863Z,2016
2018-07-26T14:01:12.908Z,2000
2018-07-26T14:01:55.520Z,2032
2018-07-26T14:02:37.180Z,2028
2018-07-26T14:03:17.182Z,2020
2018-07-26T14:03:58.437Z,1984
2018-07-26T14:04:38.718Z,1948
2018-07-26T14:05:19.254Z,1756
2018-07-26T14:06:00.050Z,1628
2018-07-26T14:06:41.140Z,1608
2018-07-26T14:07:21.475Z,1608
2018-07-26T14:08:01.976Z,1620
2018-07-26T14:08:42.328Z,1656
2018-07-26T14:09:23.086Z,1832
2018-07-26T14:10:03.902Z,1904
2018-07-26T14:10:49.722Z,1932
2018-07-26T14:11:31.148Z,1956
2018-07-26T14:12:12.657Z,1964
2018-07-26T14:12:53.035Z,1964
2018-07-26T14:14:17.358Z,1900
2018-07-26T14:14:57.778Z,1928
2018-07-26T14:15:38.290Z,1884
2018-07-26T14:16:19.521Z,1868
2018-07-26T14:17:00.292Z,1956
2018-07-26T14:23:03.580Z,2632
2018-07-26T14:23:44.223Z,2632
2018-07-26T14:24:24.711Z,2612
2018-07-26T14:26:39.818Z,2432
2018-07-26T14:33:23.472Z,2088
2018-07-26T14:34:05.033Z,2044
2018-07-26T14:34:48.042Z,1992
2018-07-26T14:35:30.946Z,1940
2018-07-26T14:37:49.283Z,1492
2018-07-26T14:38:30.359Z,1484
2018-07-26T14:39:10.542Z,1508
2018-07-26T14:39:51.126Z,1756
2018-07-26T14:40:31.734Z,1784
2018-07-26T14:41:12.307Z,1728
2018-07-26T14:41:52.817Z,1676
2018-07-26T14:42:34.223Z,1636
2018-07-26T14:43:16.878Z,1600
2018-07-26T14:43:57.218Z,1528
2018-07-26T14:44:37.925Z,1432
2018-07-26T14:45:18.442Z,1432
2018-07-26T14:45:59.402Z,1484
2018-07-26T14:46:40.276Z,1316
2018-07-26T14:47:20.936Z,1436
2018-07-26T14:48:02.208Z,1444
2018-07-26T14:48:42.608Z,1276
2018-07-26T14:49:23.058Z,1332
2018-07-26T14:50:03.475Z,1300
2018-07-26T14:50:44.415Z,1280
2018-07-26T14:51:24.522Z,1220
2018-07-26T14:52:04.927Z,1104
2018-07-26T14:52:45.365Z,1096
2018-07-26T14:53:25.975Z,1100
2018-07-26T14:54:06.645Z,1108
2018-07-26T14:54:47.395Z,1096
2018-07-26T14:55:28.271Z,1072
2018-07-26T14:56:09.294Z,1056
2018-07-26T14:56:49.855Z,1044
2018-07-26T14:57:32.020Z,1036
2018-07-26T14:58:14.489Z,1036
2018-07-26T14:58:57.702Z,1248
2018-07-26T15:02:27.754Z,1248
2018-07-26T15:03:08.106Z,1296
2018-07-26T15:03:48.694Z,1292
2018-07-26T15:04:30.303Z,1136
2018-07-26T15:05:10.160Z,1096
2018-07-26T15:05:51.031Z,1228
2018-07-26T15:06:31.695Z,1192
2018-07-26T15:07:12.556Z,968
2018-07-26T15:09:47.565Z,944
2018-07-26T15:10:27.986Z,940
2018-07-26T15:11:08.550Z,932
2018-07-26T15:12:29.799Z,932
2018-07-26T15:13:10.308Z,916
2018-07-26T15:13:50.752Z,904
2018-07-26T15:14:32.348Z,892
2018-07-26T15:15:13.223Z,880
2018-07-26T15:15:54.205Z,872
2018-07-26T15:16:34.917Z,868
2018-07-26T15:17:16.079Z,864
2018-07-26T15:17:58.646Z,856
2018-07-26T15:18:40.117Z,852
2018-07-26T15:19:20.465Z,852
2018-07-26T15:20:01.310Z,848
2018-07-26T15:20:41.885Z,840
2018-07-26T15:21:23.315Z,836
2018-07-26T15:22:03.802Z,832
2018-07-26T15:23:51.304Z,828
2018-07-26T15:24:33.708Z,824
2018-07-26T15:25:14.708Z,820
2018-07-26T15:25:55.626Z,812
2018-07-26T15:26:36.260Z,800
2018-07-26T15:27:17.643Z,788
2018-07-26T15:27:59.310Z,772
2018-07-26T15:28:41.179Z,760
2018-07-26T15:29:22.227Z,748
2018-07-26T15:30:03.134Z,736
2018-07-26T15:30:43.982Z,728
2018-07-26T15:31:24.192Z,720
2018-07-26T15:32:09.463Z,716
2018-07-26T15:32:50.703Z,708
2018-07-26T15:33:32.193Z,704
2018-07-26T15:34:13.218Z,704
2018-07-26T15:34:56.197Z,704
2018-07-26T15:35:37.773Z,708
2018-07-26T15:36:18.391Z,708
2018-07-26T15:36:58.893Z,712
2018-07-26T15:37:40.899Z,712
2018-07-26T15:52:05.007Z,760
2018-07-26T15:56:41.592Z,768
2018-07-26T15:57:23.406Z,772
2018-07-26T15:58:04.614Z,772
2018-07-26T15:58:45.204Z,772
2018-07-26T15:59:26.965Z,776
2018-07-26T16:00:08.573Z,776
2018-07-26T16:00:49.211Z,772
2018-07-26T16:01:30.190Z,772
2018-07-26T16:02:11.465Z,768
2018-07-26T16:02:52.963Z,768
2018-07-26T16:03:33.065Z,768
2018-07-26T16:04:14.495Z,768
2018-07-26T16:04:54.385Z,768
2018-07-26T16:05:35.472Z,772
2018-07-26T16:06:18.940Z,772
2018-07-26T16:06:58.200Z,776
2018-07-26T16:07:39.986Z,776
2018-07-26T16:45:52.372Z,580
2018-07-26T16:48:08.626Z,564
2018-07-26T16:48:49.115Z,560
2018-07-26T16:51:17.315Z,572
2018-07-26T16:51:57.719Z,576
2018-07-26T16:54:10.776Z,612
2018-07-26T16:58:13.076Z,576
2018-07-26T17:13:42.200Z,632
2018-07-26T19:15:04.801Z,56
2018-07-26T19:15:55.923Z,52
2018-07-26T19:16:50.014Z,48
2018-07-26T19:19:42.541Z,36
2018-07-26T19:20:44.459Z,36
2018-07-26T19:21:41.865Z,28
2018-07-26T19:22:37.666Z,28
2018-07-26T19:43:27.682Z,0
2018-07-26T19:44:18.058Z,4
2018-07-26T19:45:09.158Z,4
2018-07-26T19:46:02.094Z,4
2018-07-26T19:52:17.255Z,0
2018-07-26T19:52:58.652Z,0
2018-07-26T19:53:39.931Z,0
2018-07-26T19:54:20.313Z,0
2018-07-26T19:55:01.202Z,0
2018-07-26T19:55:42.070Z,0
2018-07-26T19:56:22.502Z,0
2018-07-26T19:57:02.946Z,0
2018-07-26T19:57:44.157Z,0
2018-07-26T19:58:24.145Z,0
2018-07-26T19:59:04.669Z,0
2018-07-26T19:59:45.056Z,0
2018-07-26T20:00:25.799Z,0
2018-07-26T20:01:06.206Z,0
2018-07-26T20:01:46.601Z,0
2018-07-26T20:02:27.046Z,0
2018-07-26T20:03:07.777Z,0
2018-07-26T20:03:48.188Z,0
